Time;durP1;ratioP1;P1;durP2;ratioP2;P2;SDS_P1;SDS_P2;PMS_P1;PMS_P2;Temp;Humidity;BMP_temperature;BMP_pressure;BME280_temperature;BME280_humidity;BME280_pressure;Samples;Min_cycle;Max_cycle;Signal;HPM_P1;HPM_P2
2023/02/09 00:01:01;;;;;;;;;;;22.20;99.90;;;;;;5011145;28;19920;-60
2023/02/09 00:03:28;;;;;;;;;;;22.20;99.90;;;;;;5011109;28;20303;-65
2023/02/09 00:05:55;;;;;;;;;;;22.20;99.90;;;;;;5011546;28;20272;-60
2023/02/09 00:08:21;;;;;;;;;;;22.30;99.90;;;;;;5011491;28;19921;-60
2023/02/09 00:10:48;;;;;;;;;;;22.30;99.90;;;;;;5011380;28;19914;-62
2023/02/09 00:13:24;;;;;;;;;;;22.30;99.90;;;;;;5010892;28;19910;-65
2023/02/09 00:15:55;;;;;;;;;;;22.50;99.90;;;;;;5011552;28;20352;-73
2023/02/09 00:18:23;;;;;;;;;;;22.50;99.90;;;;;;5011777;28;19917;-66
2023/02/09 00:20:56;;;;;;;;;;;22.50;99.90;;;;;;5026644;28;19914;-60
2023/02/09 00:23:23;;;;;;;;;;;22.60;99.90;;;;;;5011079;28;19928;-60
2023/02/09 00:25:50;;;;;;;;;;;22.70;99.90;;;;;;5011391;28;19913;-67
2023/02/09 00:28:17;;;;;;;;;;;22.70;99.90;;;;;;5011390;28;19909;-60
2023/02/09 00:30:44;;;;;;;;;;;22.90;99.90;;;;;;5011200;28;20397;-65
2023/02/09 00:33:11;;;;;;;;;;;22.90;99.90;;;;;;5011082;28;19921;-61
2023/02/09 00:35:41;;;;;;;;;;;22.90;99.90;;;;;;5011576;28;20334;-67
2023/02/09 00:38:08;;;;;;;;;;;22.90;99.90;;;;;;5014145;28;19910;-60
2023/02/09 00:40:35;;;;;;;;;;;22.90;99.90;;;;;;5014844;28;20004;-60
2023/02/09 00:43:02;;;;;;;;;;;22.90;99.90;;;;;;5014396;28;19929;-60
2023/02/09 00:45:29;;;;;;;;;;;22.90;99.90;;;;;;5014582;28;20380;-60
2023/02/09 00:47:56;;;;;;;;;;;22.80;99.90;;;;;;5014651;28;20622;-60
2023/02/09 00:50:23;;;;;;;;;;;22.70;99.90;;;;;;5014797;28;20004;-60
2023/02/09 00:52:50;;;;;;;;;;;22.70;99.90;;;;;;5014435;28;19920;-63
2023/02/09 00:55:17;;;;;;;;;;;22.60;99.90;;;;;;5014578;28;19968;-59
2023/02/09 00:57:44;;;;;;;;;;;22.70;99.90;;;;;;5014431;28;19913;-62
2023/02/09 01:00:12;;;;;;;;;;;22.60;99.90;;;;;;5014436;28;19917;-60
2023/02/09 01:02:38;;;;;;;;;;;22.60;99.90;;;;;;5013869;28;20478;-59
2023/02/09 01:05:05;;;;;;;;;;;22.70;99.90;;;;;;5014533;28;19972;-63
2023/02/09 01:07:32;;;;;;;;;;;22.60;99.90;;;;;;5014266;28;19917;-66
2023/02/09 01:09:59;;;;;;;;;;;22.50;99.90;;;;;;5014149;28;20000;-73
2023/02/09 01:12:26;;;;;;;;;;;22.70;99.90;;;;;;5014046;28;20329;-62
2023/02/09 01:14:52;;;;;;;;;;;22.60;99.90;;;;;;5014391;28;20327;-59
2023/02/09 01:17:19;;;;;;;;;;;22.60;99.90;;;;;;5014055;28;20353;-59
2023/02/09 01:19:45;;;;;;;;;;;22.70;99.90;;;;;;5014095;28;20365;-60
2023/02/09 01:22:15;;;;;;;;;;;22.60;99.90;;;;;;5013685;28;20364;-60
2023/02/09 01:24:41;;;;;;;;;;;22.60;99.90;;;;;;5014289;28;20381;-59
2023/02/09 01:27:08;;;;;;;;;;;22.40;99.90;;;;;;5014016;28;19967;-59
2023/02/09 01:29:34;;;;;;;;;;;22.40;99.90;;;;;;5013783;28;19913;-61
2023/02/09 01:32:01;;;;;;;;;;;22.40;99.90;;;;;;5013630;28;19931;-60
2023/02/09 01:34:28;;;;;;;;;;;22.10;99.90;;;;;;5013745;28;20456;-60
2023/02/09 01:36:54;;;;;;;;;;;22.10;99.90;;;;;;5013841;28;20427;-60
2023/02/09 01:39:21;;;;;;;;;;;22.00;99.90;;;;;;5013431;28;19958;-60
2023/02/09 01:41:48;;;;;;;;;;;22.10;99.90;;;;;;5013251;28;19913;-60
2023/02/09 01:44:15;;;;;;;;;;;22.00;99.90;;;;;;5013906;28;19929;-66
2023/02/09 01:46:41;;;;;;;;;;;22.00;99.90;;;;;;5013936;28;20368;-67
2023/02/09 01:49:18;;;;;;;;;;;21.70;99.90;;;;;;5013274;28;19987;-61
2023/02/09 01:51:54;;;;;;;;;;;21.80;99.90;;;;;;5013615;28;20372;-66
2023/02/09 01:54:23;;;;;;;;;;;21.90;99.90;;;;;;5013887;28;19960;-61
2023/02/09 01:56:52;;;;;;;;;;;22.10;99.90;;;;;;5013747;28;19949;-65
2023/02/09 01:59:19;;;;;;;;;;;22.40;99.90;;;;;;5013494;28;19917;-61
2023/02/09 02:01:46;;;;;;;;;;;22.40;99.90;;;;;;5012908;28;19932;-61
2023/02/09 02:04:12;;;;;;;;;;;22.80;99.90;;;;;;5013254;28;20013;-60
2023/02/09 02:06:39;;;;;;;;;;;22.60;99.90;;;;;;5013332;28;19967;-59
2023/02/09 02:09:11;;;;;;;;;;;22.70;99.90;;;;;;5013198;28;19948;-61
2023/02/09 02:11:38;;;;;;;;;;;22.80;99.90;;;;;;4993463;28;19913;-61
2023/02/09 02:14:04;;;;;;;;;;;22.80;99.90;;;;;;4993530;28;19954;-62
2023/02/09 02:16:34;;;;;;;;;;;22.80;99.90;;;;;;4993627;28;19945;-62
2023/02/09 02:19:12;;;;;;;;;;;22.90;99.90;;;;;;4993638;28;20261;-67
2023/02/09 02:21:56;;;;;;;;;;;22.90;99.90;;;;;;4993483;28;20392;-66
2023/02/09 02:24:23;;;;;;;;;;;22.90;99.90;;;;;;4993707;28;19997;-66
2023/02/09 02:27:01;;;;;;;;;;;22.90;99.90;;;;;;4993607;28;20008;-66
2023/02/09 02:29:27;;;;;;;;;;;22.80;99.90;;;;;;4993457;28;19910;-60
2023/02/09 02:32:00;;;;;;;;;;;22.70;99.90;;;;;;4992973;28;19909;-69
2023/02/09 02:34:44;;;;;;;;;;;22.70;99.90;;;;;;4993357;28;20000;-66
2023/02/09 02:37:23;;;;;;;;;;;22.70;99.90;;;;;;4993059;28;20379;-60
2023/02/09 02:40:03;;;;;;;;;;;22.70;99.90;;;;;;4993051;28;20328;-61
2023/02/09 02:42:48;;;;;;;;;;;22.70;99.90;;;;;;4992883;28;19921;-60
2023/02/09 02:45:32;;;;;;;;;;;22.60;99.90;;;;;;4993084;28;19924;-68
2023/02/09 02:48:17;;;;;;;;;;;22.50;99.90;;;;;;4993346;28;19910;-62
2023/02/09 02:50:47;;;;;;;;;;;22.60;99.90;;;;;;4993049;28;20333;-68
2023/02/09 02:53:14;;;;;;;;;;;22.60;99.90;;;;;;4992626;28;19910;-68
2023/02/09 02:55:42;;;;;;;;;;;22.60;99.90;;;;;;4993072;28;20274;-61
2023/02/09 02:58:11;;;;;;;;;;;22.60;99.90;;;;;;4993005;28;19914;-64
2023/02/09 03:00:40;;;;;;;;;;;22.60;99.90;;;;;;4993140;28;19914;-65
2023/02/09 03:03:21;;;;;;;;;;;22.60;99.90;;;;;;4992745;28;20285;-70
2023/02/09 03:05:48;;;;;;;;;;;22.70;99.90;;;;;;4992880;28;20357;-62
2023/02/09 03:08:15;;;;;;;;;;;22.70;99.90;;;;;;4992731;28;19917;-62
2023/02/09 03:10:41;;;;;;;;;;;22.90;99.90;;;;;;5004756;28;20369;-59
2023/02/09 03:13:11;;;;;;;;;;;22.90;99.90;;;;;;5012220;28;19913;-62
2023/02/09 03:15:37;;;;;;;;;;;23.00;99.90;;;;;;5012344;28;19964;-65
2023/02/09 03:18:07;;;;;;;;;;;23.00;99.90;;;;;;5012423;28;19953;-60
2023/02/09 03:20:36;;;;;;;;;;;23.00;99.90;;;;;;5012110;28;19921;-70
2023/02/09 03:23:04;;;;;;;;;;;22.90;99.90;;;;;;5012210;28;19924;-69
2023/02/09 03:25:33;;;;;;;;;;;22.80;99.90;;;;;;5012247;28;20011;-71
2023/02/09 03:28:17;;;;;;;;;;;22.70;99.90;;;;;;5012285;28;20395;-70
2023/02/09 03:30:45;;;;;;;;;;;22.70;99.90;;;;;;5012260;28;20622;-63
2023/02/09 03:33:20;;;;;;;;;;;22.70;99.90;;;;;;5011879;28;20303;-69
2023/02/09 03:35:49;;;;;;;;;;;22.70;99.90;;;;;;5011954;28;20375;-68
2023/02/09 03:38:16;;;;;;;;;;;22.70;99.90;;;;;;5011907;28;19941;-68
2023/02/09 03:40:43;;;;;;;;;;;22.70;99.90;;;;;;5011764;28;19913;-63
2023/02/09 03:43:12;;;;;;;;;;;22.70;99.90;;;;;;5011368;28;20383;-63
2023/02/09 03:45:39;;;;;;;;;;;22.60;99.90;;;;;;5011712;28;19914;-67
2023/02/09 03:48:06;;;;;;;;;;;22.60;99.90;;;;;;5011588;28;20326;-61
2023/02/09 03:50:34;;;;;;;;;;;22.60;99.90;;;;;;5011600;28;19914;-63
2023/02/09 03:53:01;;;;;;;;;;;22.50;99.90;;;;;;5011194;28;19965;-67
2023/02/09 03:55:27;;;;;;;;;;;22.50;99.90;;;;;;5011231;28;20365;-66
2023/02/09 03:57:54;;;;;;;;;;;22.50;99.90;;;;;;5011392;28;19949;-66
2023/02/09 04:00:21;;;;;;;;;;;22.40;99.90;;;;;;5011439;28;20009;-67
2023/02/09 04:02:47;;;;;;;;;;;22.40;99.90;;;;;;5011335;28;19925;-63
2023/02/09 04:05:14;;;;;;;;;;;22.30;99.90;;;;;;5011433;28;20360;-69
2023/02/09 04:07:41;;;;;;;;;;;21.90;99.90;;;;;;5011366;28;20050;-65
2023/02/09 04:10:09;;;;;;;;;;;21.20;99.90;;;;;;5011378;28;20000;-68
2023/02/09 04:12:35;;;;;;;;;;;20.40;99.90;;;;;;5013230;28;19913;-71
2023/02/09 04:15:02;;;;;;;;;;;20.20;99.90;;;;;;5015263;28;19988;-67
2023/02/09 04:17:29;;;;;;;;;;;20.00;99.90;;;;;;5015404;28;19985;-72
2023/02/09 04:19:55;;;;;;;;;;;20.20;99.90;;;;;;5015307;28;19913;-70
2023/02/09 04:22:22;;;;;;;;;;;20.50;99.90;;;;;;5014880;28;20336;-72
2023/02/09 04:24:49;;;;;;;;;;;20.80;99.90;;;;;;5015074;28;20020;-73
2023/02/09 04:27:15;;;;;;;;;;;20.90;99.90;;;;;;5014912;28;20339;-70
2023/02/09 04:29:42;;;;;;;;;;;21.10;99.90;;;;;;5015017;28;19963;-72
2023/02/09 04:32:09;;;;;;;;;;;21.20;99.90;;;;;;5014573;28;19913;-74
2023/02/09 04:34:35;;;;;;;;;;;21.20;99.90;;;;;;5015130;28;20428;-72
2023/02/09 04:37:02;;;;;;;;;;;21.30;99.90;;;;;;5014943;28;19909;-72
2023/02/09 04:39:29;;;;;;;;;;;21.10;99.90;;;;;;5015002;28;19913;-71
2023/02/09 04:41:55;;;;;;;;;;;21.10;99.90;;;;;;5014522;28;20003;-72
2023/02/09 04:44:22;;;;;;;;;;;21.30;99.90;;;;;;5014677;28;20016;-71
2023/02/09 04:46:48;;;;;;;;;;;21.40;99.90;;;;;;5014864;28;20466;-72
2023/02/09 04:49:15;;;;;;;;;;;21.40;99.90;;;;;;5014693;28;20004;-72
2023/02/09 04:51:42;;;;;;;;;;;21.30;99.90;;;;;;5014232;28;20004;-72
2023/02/09 04:54:08;;;;;;;;;;;21.20;99.90;;;;;;5014701;28;19909;-71
2023/02/09 04:56:35;;;;;;;;;;;21.40;99.90;;;;;;5014692;28;19936;-70
2023/02/09 05:01:46;;;;;;;;;;;21.30;99.90;;;;;;5014479;28;20024;-73
2023/02/09 05:04:13;;;;;;;;;;;21.20;99.90;;;;;;5014595;28;19949;-74
2023/02/09 05:06:40;;;;;;;;;;;21.00;99.90;;;;;;5014687;28;20001;-73
2023/02/09 05:09:06;;;;;;;;;;;21.10;99.90;;;;;;5014423;28;19932;-72
2023/02/09 05:11:33;;;;;;;;;;;21.10;99.90;;;;;;5013852;28;20315;-72
2023/02/09 05:14:00;;;;;;;;;;;20.60;99.90;;;;;;5014030;28;19979;-70
2023/02/09 05:16:27;;;;;;;;;;;20.40;99.90;;;;;;5013927;28;19914;-66
2023/02/09 05:18:54;;;;;;;;;;;20.70;99.90;;;;;;5014095;28;19988;-68
2023/02/09 05:21:20;;;;;;;;;;;20.40;99.90;;;;;;5013889;28;19914;-71
2023/02/09 05:23:47;;;;;;;;;;;20.10;99.90;;;;;;5012751;28;19953;-70
2023/02/09 05:26:14;;;;;;;;;;;19.90;99.90;;;;;;5014236;28;19910;-71
2023/02/09 05:28:40;;;;;;;;;;;20.00;99.90;;;;;;5014203;28;20403;-64
2023/02/09 05:31:07;;;;;;;;;;;20.00;99.90;;;;;;5013687;28;19910;-63
2023/02/09 05:33:33;;;;;;;;;;;19.90;99.90;;;;;;5013389;28;19910;-66
2023/02/09 05:36:02;;;;;;;;;;;19.80;99.90;;;;;;5013803;28;20384;-65
2023/02/09 05:38:29;;;;;;;;;;;19.70;99.90;;;;;;5013931;28;20016;-68
2023/02/09 05:40:55;;;;;;;;;;;19.90;99.90;;;;;;5014060;28;19957;-72
2023/02/09 05:43:22;;;;;;;;;;;19.80;99.90;;;;;;5013174;28;20448;-73
2023/02/09 05:45:49;;;;;;;;;;;19.70;99.90;;;;;;5013637;28;19953;-70
2023/02/09 05:48:16;;;;;;;;;;;19.60;99.90;;;;;;5013731;28;19916;-69
2023/02/09 05:50:43;;;;;;;;;;;19.60;99.90;;;;;;5012731;28;19995;-62
2023/02/09 05:53:09;;;;;;;;;;;19.70;99.90;;;;;;5011143;28;19913;-64
2023/02/09 05:55:37;;;;;;;;;;;19.70;99.90;;;;;;5011221;28;19920;-67
2023/02/09 05:58:03;;;;;;;;;;;19.60;99.90;;;;;;5011584;28;19925;-71
2023/02/09 06:00:30;;;;;;;;;;;19.80;99.90;;;;;;5011341;28;19914;-73
2023/02/09 06:02:57;;;;;;;;;;;19.80;99.90;;;;;;5010946;28;19925;-69
2023/02/09 06:05:24;;;;;;;;;;;19.80;99.90;;;;;;5011005;28;19959;-62
2023/02/09 06:07:50;;;;;;;;;;;19.70;99.90;;;;;;5011495;28;19917;-64
2023/02/09 06:10:18;;;;;;;;;;;19.70;99.90;;;;;;5011331;28;19913;-68
2023/02/09 06:12:45;;;;;;;;;;;19.80;99.90;;;;;;5011035;28;20420;-62
2023/02/09 06:15:12;;;;;;;;;;;19.80;99.90;;;;;;5011077;28;19913;-70
2023/02/09 06:17:38;;;;;;;;;;;20.00;99.90;;;;;;5010992;28;20549;-71
2023/02/09 06:20:05;;;;;;;;;;;20.00;99.90;;;;;;5010995;28;19909;-67
2023/02/09 06:22:32;;;;;;;;;;;20.10;99.90;;;;;;5010602;28;19925;-69
2023/02/09 06:24:59;;;;;;;;;;;20.20;99.90;;;;;;5011129;28;19914;-65
2023/02/09 06:27:25;;;;;;;;;;;20.20;99.90;;;;;;5010777;28;19933;-67
2023/02/09 06:29:52;;;;;;;;;;;20.30;99.90;;;;;;5010500;28;19913;-69
2023/02/09 06:32:19;;;;;;;;;;;20.20;99.90;;;;;;5010258;28;19916;-68
2023/02/09 06:34:45;;;;;;;;;;;20.40;99.90;;;;;;5010541;28;20356;-67
2023/02/09 06:37:13;;;;;;;;;;;20.20;99.90;;;;;;5010284;28;19914;-62
2023/02/09 06:39:39;;;;;;;;;;;20.20;99.90;;;;;;5025457;28;19987;-65
2023/02/09 06:42:06;;;;;;;;;;;20.20;99.90;;;;;;5010275;28;19914;-68
2023/02/09 06:44:32;;;;;;;;;;;20.10;99.90;;;;;;5009713;28;19921;-68
2023/02/09 06:46:59;;;;;;;;;;;19.90;99.90;;;;;;5010391;28;19910;-62
2023/02/09 06:49:26;;;;;;;;;;;19.80;99.90;;;;;;5010183;28;19909;-62
2023/02/09 06:51:52;;;;;;;;;;;19.80;99.90;;;;;;5010278;28;19960;-61
2023/02/09 06:54:19;;;;;;;;;;;19.80;99.90;;;;;;5010276;28;19917;-62
2023/02/09 06:56:46;;;;;;;;;;;19.80;99.90;;;;;;5010099;28;19917;-71
2023/02/09 06:59:13;;;;;;;;;;;19.70;99.90;;;;;;5009921;28;19913;-62
2023/02/09 07:01:40;;;;;;;;;;;19.60;99.90;;;;;;5010071;28;20040;-72
2023/02/09 07:04:06;;;;;;;;;;;19.60;99.90;;;;;;5010275;28;20404;-62
2023/02/09 07:06:33;;;;;;;;;;;19.50;99.90;;;;;;5010077;28;19956;-61
2023/02/09 07:08:59;;;;;;;;;;;19.50;99.90;;;;;;5010086;28;19956;-62
2023/02/09 07:11:26;;;;;;;;;;;19.50;99.90;;;;;;5009133;28;20279;-63
2023/02/09 07:13:53;;;;;;;;;;;19.50;99.90;;;;;;5010242;28;19939;-62
2023/02/09 07:16:19;;;;;;;;;;;19.50;99.90;;;;;;5010159;28;19918;-69
2023/02/09 07:18:46;;;;;;;;;;;19.50;99.90;;;;;;5010381;28;19963;-64
2023/02/09 07:21:18;;;;;;;;;;;19.50;99.90;;;;;;5009866;28;19913;-62
2023/02/09 07:23:45;;;;;;;;;;;19.50;99.90;;;;;;5009710;28;19921;-66
2023/02/09 07:26:14;;;;;;;;;;;19.50;99.90;;;;;;5010002;28;19935;-62
2023/02/09 07:28:41;;;;;;;;;;;19.60;99.90;;;;;;5010046;28;19980;-66
2023/02/09 07:31:08;;;;;;;;;;;19.60;99.90;;;;;;5010099;28;19920;-72
2023/02/09 07:33:35;;;;;;;;;;;19.80;99.90;;;;;;5009984;28;20363;-70
2023/02/09 07:36:03;;;;;;;;;;;19.70;99.90;;;;;;5009737;28;19913;-71
2023/02/09 07:38:30;;;;;;;;;;;19.80;99.90;;;;;;5009874;28;19997;-62
2023/02/09 07:41:00;;;;;;;;;;;19.80;99.90;;;;;;5010338;28;19909;-63
2023/02/09 07:43:27;;;;;;;;;;;19.80;99.90;;;;;;5009830;28;19921;-68
2023/02/09 07:45:58;;;;;;;;;;;19.70;99.90;;;;;;5010188;28;20023;-62
2023/02/09 07:48:25;;;;;;;;;;;19.70;99.90;;;;;;5012965;28;19910;-62
2023/02/09 07:50:52;;;;;;;;;;;19.60;99.90;;;;;;5014263;28;19913;-62
2023/02/09 07:53:19;;;;;;;;;;;19.60;99.90;;;;;;5013761;28;19910;-65
2023/02/09 07:55:46;;;;;;;;;;;19.50;99.90;;;;;;5014182;28;19972;-69
2023/02/09 07:58:13;;;;;;;;;;;19.50;99.90;;;;;;5013938;28;19996;-69
2023/02/09 08:00:40;;;;;;;;;;;19.50;99.90;;;;;;5014016;28;20406;-62
2023/02/09 08:03:07;;;;;;;;;;;19.60;99.90;;;;;;5012784;28;20323;-62
2023/02/09 08:05:40;;;;;;;;;;;19.70;99.90;;;;;;5013697;28;19917;-62
2023/02/09 08:08:06;;;;;;;;;;;19.70;99.90;;;;;;5014041;28;20013;-65
2023/02/09 08:10:34;;;;;;;;;;;19.70;99.90;;;;;;5014249;28;20291;-71
2023/02/09 08:13:03;;;;;;;;;;;19.70;99.90;;;;;;5015252;28;19939;-62
2023/02/09 08:15:30;;;;;;;;;;;19.70;99.90;;;;;;5015672;28;20394;-62
2023/02/09 08:17:58;;;;;;;;;;;19.80;99.90;;;;;;5015803;28;20000;-62
2023/02/09 08:20:26;;;;;;;;;;;19.80;99.90;;;;;;5015376;28;20384;-61
2023/02/09 08:22:55;;;;;;;;;;;19.80;99.90;;;;;;5012023;28;19917;-61
2023/02/09 08:25:23;;;;;;;;;;;19.90;99.90;;;;;;5008406;28;19960;-63
2023/02/09 08:27:50;;;;;;;;;;;19.90;99.90;;;;;;5007652;28;20667;-62
2023/02/09 08:30:17;;;;;;;;;;;19.90;99.90;;;;;;5006905;28;19914;-65
2023/02/09 08:32:43;;;;;;;;;;;19.90;99.90;;;;;;5006682;28;19919;-61
2023/02/09 08:35:10;;;;;;;;;;;19.90;99.90;;;;;;5007161;28;20024;-64
2023/02/09 08:37:40;;;;;;;;;;;19.90;99.90;;;;;;5006481;28;19925;-61
2023/02/09 08:40:07;;;;;;;;;;;19.80;99.90;;;;;;5007180;28;20292;-62
2023/02/09 08:42:33;;;;;;;;;;;19.90;99.90;;;;;;5006634;28;19921;-72
2023/02/09 08:45:00;;;;;;;;;;;19.90;99.90;;;;;;5006503;28;19936;-70
2023/02/09 08:47:27;;;;;;;;;;;19.90;99.90;;;;;;5006502;28;19913;-71
2023/02/09 08:49:53;;;;;;;;;;;19.90;99.90;;;;;;5006415;28;19913;-62
2023/02/09 08:52:20;;;;;;;;;;;19.80;99.90;;;;;;5005904;28;19956;-63
2023/02/09 08:54:46;;;;;;;;;;;19.90;99.90;;;;;;5007065;28;19982;-61
2023/02/09 08:57:13;;;;;;;;;;;19.90;99.90;;;;;;5006332;28;19992;-64
2023/02/09 08:59:40;;;;;;;;;;;19.90;99.90;;;;;;5006047;28;20313;-61
2023/02/09 09:02:06;;;;;;;;;;;20.00;99.90;;;;;;5005493;28;19995;-72
2023/02/09 09:04:33;;;;;;;;;;;20.00;99.90;;;;;;5005872;28;20025;-61
2023/02/09 09:07:00;;;;;;;;;;;20.00;99.90;;;;;;5006443;28;19921;-68
2023/02/09 09:09:26;;;;;;;;;;;20.00;99.90;;;;;;5006436;28;19914;-61
2023/02/09 09:11:53;;;;;;;;;;;20.10;99.90;;;;;;5005711;28;19941;-62
2023/02/09 09:14:20;;;;;;;;;;;20.10;99.90;;;;;;5005915;28;19917;-62
2023/02/09 09:16:46;;;;;;;;;;;20.10;99.90;;;;;;5005796;28;20292;-68
2023/02/09 09:19:13;;;;;;;;;;;20.10;99.90;;;;;;5005721;28;19913;-61
2023/02/09 09:21:39;;;;;;;;;;;20.10;99.90;;;;;;5005453;28;20118;-64
2023/02/09 09:24:06;;;;;;;;;;;20.10;99.90;;;;;;5005723;28;19921;-61
2023/02/09 09:26:34;;;;;;;;;;;20.20;99.90;;;;;;5005707;28;19914;-72
2023/02/09 09:29:03;;;;;;;;;;;20.10;99.90;;;;;;5005682;28;19917;-62
2023/02/09 09:31:32;;;;;;;;;;;20.10;99.90;;;;;;5005238;28;19917;-62
2023/02/09 09:33:59;;;;;;;;;;;20.10;99.90;;;;;;5005849;28;19913;-61
2023/02/09 09:36:25;;;;;;;;;;;20.10;99.90;;;;;;5005645;28;19913;-61
2023/02/09 09:38:52;;;;;;;;;;;20.20;99.90;;;;;;5005591;28;20438;-64
2023/02/09 09:41:18;;;;;;;;;;;20.20;99.90;;;;;;5005377;28;19992;-62
2023/02/09 09:43:46;;;;;;;;;;;20.20;99.90;;;;;;5005321;28;19999;-61
2023/02/09 09:46:20;;;;;;;;;;;20.10;99.90;;;;;;5005830;28;19913;-62
2023/02/09 09:48:49;;;;;;;;;;;20.10;99.90;;;;;;5005840;28;19914;-61
2023/02/09 09:51:36;;;;;;;;;;;20.20;99.90;;;;;;5010316;28;19909;-65
2023/02/09 09:54:05;;;;;;;;;;;20.20;99.90;;;;;;5013765;28;19913;-62
2023/02/09 09:56:32;;;;;;;;;;;20.20;99.90;;;;;;5013801;28;20372;-66
2023/02/09 09:59:00;;;;;;;;;;;20.20;99.90;;;;;;5013448;28;19910;-63
2023/02/09 10:01:29;;;;;;;;;;;20.20;99.90;;;;;;5012937;28;19913;-63
2023/02/09 10:04:00;;;;;;;;;;;20.20;99.90;;;;;;5013556;28;19917;-62
2023/02/09 10:06:29;;;;;;;;;;;20.20;99.90;;;;;;5013695;28;19910;-64
2023/02/09 10:08:58;;;;;;;;;;;20.20;99.90;;;;;;5013608;28;19917;-62
2023/02/09 10:11:29;;;;;;;;;;;20.20;99.90;;;;;;5012372;28;19916;-66
2023/02/09 10:13:56;;;;;;;;;;;20.20;99.90;;;;;;5013262;28;19910;-61
2023/02/09 10:16:29;;;;;;;;;;;20.10;99.90;;;;;;5013416;28;19955;-62
2023/02/09 10:19:00;;;;;;;;;;;20.20;99.90;;;;;;5013229;28;19910;-61
2023/02/09 10:21:32;;;;;;;;;;;20.10;99.90;;;;;;5012692;28;19914;-62
2023/02/09 10:24:01;;;;;;;;;;;20.10;99.90;;;;;;5013308;28;19921;-63
2023/02/09 10:26:32;;;;;;;;;;;20.20;99.90;;;;;;5013559;28;19910;-63
2023/02/09 10:29:06;;;;;;;;;;;20.10;99.90;;;;;;5013191;28;19941;-61
2023/02/09 10:31:35;;;;;;;;;;;20.10;99.90;;;;;;5012553;28;20406;-68
2023/02/09 10:34:03;;;;;;;;;;;20.10;99.90;;;;;;5013007;28;19909;-62
2023/02/09 10:36:35;;;;;;;;;;;20.20;99.90;;;;;;5012840;28;19917;-61
2023/02/09 10:39:22;;;;;;;;;;;20.10;99.90;;;;;;5013033;28;19952;-64
2023/02/09 10:41:50;;;;;;;;;;;20.20;99.90;;;;;;5012334;28;20254;-64
2023/02/09 10:44:20;;;;;;;;;;;20.10;99.90;;;;;;5012692;28;19965;-70
2023/02/09 10:46:47;;;;;;;;;;;20.10;99.90;;;;;;5012903;28;20343;-67
2023/02/09 10:49:37;;;;;;;;;;;20.10;99.90;;;;;;5012605;28;19910;-62
2023/02/09 10:52:14;;;;;;;;;;;20.10;99.90;;;;;;5007205;28;19913;-67
2023/02/09 10:54:48;;;;;;;;;;;20.00;99.90;;;;;;5012721;28;19921;-61
2023/02/09 10:57:27;;;;;;;;;;;20.00;99.90;;;;;;5003415;28;19913;-61
2023/02/09 10:59:59;;;;;;;;;;;20.10;99.90;;;;;;5004385;28;19914;-62
2023/02/09 11:02:33;;;;;;;;;;;19.90;99.90;;;;;;5003763;28;20040;-61
2023/02/09 11:04:59;;;;;;;;;;;19.80;99.90;;;;;;5004581;28;19940;-67
2023/02/09 11:07:30;;;;;;;;;;;19.80;99.90;;;;;;5004095;28;19920;-61
2023/02/09 11:09:58;;;;;;;;;;;19.80;99.90;;;;;;5004118;28;19913;-62
2023/02/09 11:12:27;;;;;;;;;;;19.70;99.90;;;;;;5003649;28;19914;-65
2023/02/09 11:14:54;;;;;;;;;;;19.70;99.90;;;;;;5004119;28;19913;-64
2023/02/09 11:17:23;;;;;;;;;;;19.70;99.90;;;;;;5004106;28;19913;-65
2023/02/09 11:20:08;;;;;;;;;;;19.60;99.90;;;;;;5004108;28;19918;-62
2023/02/09 11:22:57;;;;;;;;;;;19.70;99.90;;;;;;5002698;28;19913;-61
2023/02/09 11:25:25;;;;;;;;;;;19.70;99.90;;;;;;5004074;28;19913;-62
2023/02/09 11:28:27;;;;;;;;;;;19.60;99.90;;;;;;5003994;28;20343;-61
2023/02/09 11:30:54;;;;;;;;;;;19.70;99.90;;;;;;4970526;28;19918;-61
2023/02/09 11:33:33;;;;;;;;;;;19.60;99.90;;;;;;4992929;28;19925;-61
2023/02/09 11:36:15;;;;;;;;;;;19.60;99.90;;;;;;4992629;28;19910;-61
2023/02/09 11:39:01;;;;;;;;;;;19.60;99.90;;;;;;4991823;28;19921;-63
2023/02/09 11:44:29;;;;;;;;;;;19.70;99.90;;;;;;4992756;28;19990;-62
2023/02/09 11:47:01;;;;;;;;;;;19.60;99.90;;;;;;4992602;28;20352;-63
2023/02/09 11:49:29;;;;;;;;;;;19.60;99.90;;;;;;4992411;28;19960;-64
2023/02/09 11:51:57;;;;;;;;;;;19.60;99.90;;;;;;4992258;28;19937;-61
2023/02/09 11:54:28;;;;;;;;;;;19.50;99.90;;;;;;4991760;28;19910;-65
2023/02/09 11:56:58;;;;;;;;;;;19.60;99.90;;;;;;4992513;28;19917;-61
2023/02/09 11:59:31;;;;;;;;;;;19.70;99.90;;;;;;4992289;28;20000;-61
2023/02/09 12:02:18;;;;;;;;;;;19.80;99.90;;;;;;4991949;28;19929;-61
2023/02/09 12:04:52;;;;;;;;;;;19.80;99.90;;;;;;4992422;28;19921;-61
2023/02/09 12:07:36;;;;;;;;;;;19.90;99.90;;;;;;4992127;28;19914;-64
2023/02/09 12:10:14;;;;;;;;;;;19.90;99.90;;;;;;4999015;28;19963;-63
2023/02/09 12:13:09;;;;;;;;;;;19.90;99.90;;;;;;5011219;28;19917;-66
2023/02/09 12:15:39;;;;;;;;;;;19.90;99.90;;;;;;4975242;28;19910;-69
2023/02/09 12:18:18;;;;;;;;;;;19.90;99.90;;;;;;5011793;28;19909;-74
2023/02/09 12:20:44;;;;;;;;;;;19.90;99.90;;;;;;5011401;28;19913;-61
2023/02/09 12:23:29;;;;;;;;;;;19.90;99.90;;;;;;5011826;28;20356;-61
2023/02/09 12:25:58;;;;;;;;;;;19.90;99.90;;;;;;5011643;28;20000;-61
2023/02/09 12:28:34;;;;;;;;;;;19.90;99.90;;;;;;5011517;28;19910;-72
2023/02/09 12:31:06;;;;;;;;;;;19.80;99.90;;;;;;5011484;28;19913;-62
2023/02/09 12:33:34;;;;;;;;;;;19.80;99.90;;;;;;5013096;28;19920;-70
2023/02/09 12:36:09;;;;;;;;;;;19.90;99.90;;;;;;5015144;28;19922;-70
2023/02/09 12:38:56;;;;;;;;;;;19.90;99.90;;;;;;5015445;28;20394;-63
2023/02/09 12:41:38;;;;;;;;;;;19.80;99.90;;;;;;5014849;28;20376;-61
2023/02/09 12:44:24;;;;;;;;;;;19.90;99.90;;;;;;5015345;28;19922;-66
2023/02/09 12:46:53;;;;;;;;;;;19.80;99.90;;;;;;5015322;28;19910;-65
2023/02/09 12:49:26;;;;;;;;;;;19.80;99.90;;;;;;5014853;28;19925;-62
2023/02/09 12:52:03;;;;;;;;;;;19.90;99.90;;;;;;5014950;28;20394;-73
2023/02/09 12:54:49;;;;;;;;;;;19.90;99.90;;;;;;5015022;28;19913;-62
2023/02/09 12:57:17;;;;;;;;;;;19.90;99.90;;;;;;5014706;28;20264;-61
2023/02/09 12:59:50;;;;;;;;;;;19.90;99.90;;;;;;5014906;28;19922;-67
2023/02/09 13:02:29;;;;;;;;;;;19.80;99.90;;;;;;5014525;28;19925;-70
2023/02/09 13:05:01;;;;;;;;;;;19.80;99.90;;;;;;5014984;28;19921;-62
2023/02/09 13:07:46;;;;;;;;;;;19.90;99.90;;;;;;5014660;28;19910;-61
2023/02/09 13:10:12;;;;;;;;;;;19.90;99.90;;;;;;5014840;28;19913;-66
2023/02/09 13:12:41;;;;;;;;;;;19.90;99.90;;;;;;5014305;28;19917;-61
2023/02/09 13:15:16;;;;;;;;;;;19.90;99.90;;;;;;5014561;28;19914;-64
2023/02/09 13:17:45;;;;;;;;;;;19.90;99.90;;;;;;5014544;28;20320;-69
2023/02/09 13:20:18;;;;;;;;;;;19.90;99.90;;;;;;5014754;28;20283;-61
2023/02/09 13:22:51;;;;;;;;;;;19.90;99.90;;;;;;5014433;28;19914;-61
2023/02/09 13:25:28;;;;;;;;;;;19.80;99.90;;;;;;5014455;28;20379;-66
2023/02/09 13:27:55;;;;;;;;;;;19.70;99.90;;;;;;5014500;28;20012;-61
2023/02/09 13:30:26;;;;;;;;;;;19.70;99.90;;;;;;5014233;28;20317;-61
2023/02/09 13:32:58;;;;;;;;;;;19.60;99.90;;;;;;5013931;28;19909;-65
2023/02/09 13:35:25;;;;;;;;;;;19.60;99.90;;;;;;5014143;28;19909;-61
2023/02/09 13:37:55;;;;;;;;;;;19.60;99.90;;;;;;5014527;28;19920;-68
2023/02/09 13:40:23;;;;;;;;;;;19.60;99.90;;;;;;5014159;28;19964;-66
2023/02/09 13:43:10;;;;;;;;;;;19.60;99.90;;;;;;5013554;28;19921;-61
2023/02/09 13:45:45;;;;;;;;;;;19.70;99.90;;;;;;5005510;28;19917;-61
2023/02/09 13:48:22;;;;;;;;;;;19.60;99.90;;;;;;5014133;28;19967;-61
2023/02/09 13:50:50;;;;;;;;;;;19.60;99.90;;;;;;5013642;28;19913;-63
2023/02/09 13:53:18;;;;;;;;;;;19.50;99.90;;;;;;5013717;28;19921;-70
2023/02/09 13:55:45;;;;;;;;;;;19.60;99.90;;;;;;5014012;28;19921;-63
2023/02/09 13:58:31;;;;;;;;;;;19.70;99.90;;;;;;5013715;28;20143;-62
2023/02/09 14:01:11;;;;;;;;;;;19.80;99.90;;;;;;5013480;28;19931;-63
2023/02/09 14:03:41;;;;;;;;;;;19.70;99.90;;;;;;5013567;28;19921;-63
2023/02/09 14:06:26;;;;;;;;;;;19.80;99.90;;;;;;5013810;28;19913;-63
2023/02/09 14:08:52;;;;;;;;;;;19.90;99.90;;;;;;5013779;28;19909;-66
2023/02/09 14:11:37;;;;;;;;;;;19.80;99.90;;;;;;5012855;28;19910;-61
2023/02/09 14:14:09;;;;;;;;;;;19.80;99.90;;;;;;5013639;28;19914;-67
2023/02/09 14:16:36;;;;;;;;;;;19.70;99.90;;;;;;5013672;28;20387;-66
2023/02/09 14:19:03;;;;;;;;;;;19.80;99.90;;;;;;5013533;28;19962;-70
2023/02/09 14:21:49;;;;;;;;;;;19.80;99.90;;;;;;5012939;28;19917;-66
2023/02/09 14:24:21;;;;;;;;;;;19.70;99.90;;;;;;5012912;28;19972;-69
2023/02/09 14:27:18;;;;;;;;;;;19.80;99.90;;;;;;5013107;28;19917;-69
2023/02/09 14:29:46;;;;;;;;;;;19.80;99.90;;;;;;5013364;28;20452;-70
2023/02/09 14:32:47;;;;;;;;;;;19.80;99.90;;;;;;5012859;28;19921;-71
2023/02/09 14:35:19;;;;;;;;;;;19.80;99.90;;;;;;5005599;28;19910;-68
2023/02/09 14:37:47;;;;;;;;;;;19.80;99.90;;;;;;5012612;28;20349;-61